Time;durP1;ratioP1;P1;durP2;ratioP2;P2;SDS_P1;SDS_P2;PMS_P1;PMS_P2;Temp;Humidity;BMP_temperature;BMP_pressure;BME280_temperature;BME280_humidity;BME280_pressure;Samples;Min_cycle;Max_cycle;Signal;HPM_P1;HPM_P2
2021/12/01 00:00:32;;;;;;;31.02;19.05;;;10.00;97.20;;;;;;4848175;29;20724;-81
2021/12/01 00:02:59;;;;;;;29.55;17.48;;;10.00;97.30;;;;;;4811983;29;20053;-81
2021/12/01 00:05:29;;;;;;;24.85;14.45;;;10.00;97.20;;;;;;4829926;29;20078;-81
2021/12/01 00:07:56;;;;;;;24.00;14.40;;;10.00;97.20;;;;;;4867744;29;20785;-81
2021/12/01 00:10:26;;;;;;;22.17;13.63;;;10.10;97.30;;;;;;4836179;29;20053;-80
2021/12/01 00:12:53;;;;;;;21.40;13.25;;;10.00;97.20;;;;;;4828522;29;20384;-80
2021/12/01 00:15:20;;;;;;;18.70;11.68;;;10.00;97.20;;;;;;4827929;29;20046;-80
2021/12/01 00:17:50;;;;;;;17.15;11.27;;;10.00;97.20;;;;;;4852088;29;20110;-81
2021/12/01 00:20:19;;;;;;;19.52;11.27;;;10.10;97.20;;;;;;4852723;29;20142;-78
2021/12/01 00:22:47;;;;;;;15.85;10.52;;;10.10;97.20;;;;;;4829764;29;20569;-78
2021/12/01 00:25:18;;;;;;;16.83;10.65;;;10.10;97.20;;;;;;4815724;29;20045;-78
2021/12/01 00:27:46;;;;;;;13.82;8.77;;;10.10;97.20;;;;;;4843909;29;20057;-78
2021/12/01 00:30:13;;;;;;;14.98;9.23;;;10.10;97.30;;;;;;4824058;29;20054;-78
2021/12/01 00:32:40;;;;;;;14.60;9.13;;;10.10;97.20;;;;;;4844659;29;20046;-78
2021/12/01 00:35:09;;;;;;;12.73;7.82;;;10.10;97.50;;;;;;4847996;29;20093;-78
2021/12/01 00:37:39;;;;;;;13.70;8.75;;;10.10;97.20;;;;;;4835884;29;20140;-78
2021/12/01 00:40:08;;;;;;;11.77;7.82;;;10.20;97.30;;;;;;4862555;29;20937;-78
2021/12/01 00:42:35;;;;;;;11.07;7.13;;;10.20;97.30;;;;;;4816376;29;20137;-77
2021/12/01 00:45:16;;;;;;;10.27;6.88;;;10.20;97.30;;;;;;4826624;29;20054;-78
2021/12/01 00:47:44;;;;;;;8.00;5.60;;;10.20;97.20;;;;;;4841762;29;20520;-78
2021/12/01 00:50:22;;;;;;;8.52;5.47;;;10.20;97.30;;;;;;4827936;29;20049;-78
2021/12/01 00:52:51;;;;;;;9.20;5.78;;;10.20;97.30;;;;;;4827868;29;20113;-78
2021/12/01 00:55:21;;;;;;;8.00;5.10;;;10.20;97.30;;;;;;4829760;29;20114;-78
2021/12/01 00:57:52;;;;;;;6.55;4.35;;;10.20;97.30;;;;;;4846005;29;20120;-78
2021/12/01 01:00:23;;;;;;;6.57;4.18;;;10.30;97.30;;;;;;4842697;29;20037;-81
2021/12/01 01:02:51;;;;;;;6.50;4.15;;;10.30;97.30;;;;;;4835940;29;20513;-80
2021/12/01 01:05:18;;;;;;;5.72;3.63;;;10.20;97.30;;;;;;4813294;29;20045;-81
2021/12/01 01:07:46;;;;;;;6.28;4.15;;;10.20;97.30;;;;;;4827029;29;21348;-81
2021/12/01 01:18:34;;;;;;;5.93;3.60;;;10.30;97.40;;;;;;4829676;29;20068;-82
2021/12/01 01:21:04;;;;;;;5.43;3.20;;;10.30;97.40;;;;;;4844917;29;20049;-81
2021/12/01 01:23:33;;;;;;;7.07;4.38;;;10.30;97.30;;;;;;4842046;29;20501;-81
2021/12/01 01:26:01;;;;;;;8.55;4.18;;;10.30;97.40;;;;;;4828238;29;20049;-81
2021/12/01 01:28:29;;;;;;;8.00;4.88;;;10.30;97.60;;;;;;4835019;29;20053;-81
2021/12/01 01:30:56;;;;;;;7.70;4.72;;;10.30;97.40;;;;;;4841758;29;20057;-80
2021/12/01 01:33:23;;;;;;;8.00;5.15;;;10.30;97.40;;;;;;4830580;29;20418;-81
2021/12/01 01:35:52;;;;;;;6.90;4.50;;;10.30;97.40;;;;;;4850359;29;20054;-81
2021/12/01 01:38:19;;;;;;;7.70;4.45;;;10.30;97.40;;;;;;4829328;29;20088;-82
2021/12/01 01:40:47;;;;;;;7.68;5.13;;;10.30;97.40;;;;;;4842503;29;20091;-78
2021/12/01 01:43:17;;;;;;;6.28;3.88;;;10.30;97.40;;;;;;4813012;29;20072;-78
2021/12/01 01:45:50;;;;;;;6.60;3.72;;;10.30;97.40;;;;;;4811750;29;20062;-78
2021/12/01 01:48:18;;;;;;;6.28;3.33;;;10.30;97.40;;;;;;4833958;29;20050;-78
2021/12/01 01:50:45;;;;;;;5.95;3.70;;;10.30;97.40;;;;;;4832338;29;20042;-78
2021/12/01 01:53:20;;;;;;;6.57;3.72;;;10.30;97.40;;;;;;4839936;29;20130;-78
2021/12/01 01:55:52;;;;;;;5.65;3.17;;;10.30;97.40;;;;;;4849326;29;20060;-78
2021/12/01 01:58:21;;;;;;;5.18;2.97;;;10.30;97.40;;;;;;4837970;29;20581;-78
2021/12/01 02:00:52;;;;;;;6.40;3.33;;;10.30;97.40;;;;;;4807529;29;20137;-78
2021/12/01 02:03:23;;;;;;;5.18;2.67;;;10.30;97.40;;;;;;4832326;29;20145;-78
2021/12/01 02:05:51;;;;;;;5.70;3.42;;;10.30;97.40;;;;;;4824039;29;20119;-78
2021/12/01 02:08:28;;;;;;;5.10;2.67;;;10.30;97.40;;;;;;4836474;29;20046;-78
2021/12/01 02:11:01;;;;;;;5.07;2.58;;;10.30;97.40;;;;;;4812176;29;20497;-79
2021/12/01 02:13:28;;;;;;;4.72;2.47;;;10.20;97.40;;;;;;4838805;29;20045;-78
2021/12/01 02:15:57;;;;;;;5.40;2.90;;;10.20;97.40;;;;;;4824224;29;20133;-78
2021/12/01 02:18:25;;;;;;;4.65;2.45;;;10.20;97.40;;;;;;4840474;29;20073;-78
2021/12/01 02:21:06;;;;;;;3.92;2.08;;;10.20;97.40;;;;;;4830433;29;20068;-79
2021/12/01 02:23:36;;;;;;;3.97;2.13;;;10.20;97.40;;;;;;4846800;29;20053;-79
2021/12/01 02:26:04;;;;;;;4.25;2.17;;;10.20;97.40;;;;;;4823732;29;20054;-78
2021/12/01 02:28:33;;;;;;;5.97;2.83;;;10.20;97.40;;;;;;4823837;29;20106;-78
2021/12/01 02:31:00;;;;;;;6.03;2.78;;;10.20;97.40;;;;;;4810266;29;20053;-78
2021/12/01 02:33:27;;;;;;;6.43;2.80;;;10.10;97.40;;;;;;4826191;29;20056;-78
2021/12/01 02:35:55;;;;;;;4.57;2.45;;;10.10;97.40;;;;;;4825466;29;20088;-78
2021/12/01 02:38:22;;;;;;;5.97;2.85;;;10.10;97.40;;;;;;4813261;29;20050;-78
2021/12/01 02:40:50;;;;;;;4.85;2.65;;;10.10;97.40;;;;;;4857450;29;20077;-78
2021/12/01 02:43:18;;;;;;;4.45;2.60;;;10.00;97.40;;;;;;4849833;29;20145;-78
2021/12/01 02:45:45;;;;;;;4.03;2.15;;;10.00;97.40;;;;;;4826513;29;20061;-78
2021/12/01 02:48:14;;;;;;;3.95;2.45;;;10.10;97.40;;;;;;4842102;29;20094;-78
2021/12/01 02:50:42;;;;;;;5.40;3.08;;;10.00;97.40;;;;;;4810954;29;20073;-78
2021/12/01 02:53:10;;;;;;;4.80;2.60;;;10.00;97.40;;;;;;4858325;29;20166;-78
2021/12/01 02:55:56;;;;;;;4.28;2.35;;;10.00;97.40;;;;;;4837334;29;20068;-78
2021/12/01 02:58:25;;;;;;;4.47;2.45;;;10.00;97.40;;;;;;4830951;29;20332;-81
2021/12/01 03:00:55;;;;;;;3.90;2.17;;;9.90;97.40;;;;;;4854520;29;20061;-82
2021/12/01 03:03:23;;;;;;;4.47;2.72;;;9.90;97.70;;;;;;4843511;29;20693;-81
2021/12/01 03:05:50;;;;;;;6.13;2.83;;;9.90;97.70;;;;;;4879323;29;20121;-82
2021/12/01 03:08:20;;;;;;;4.18;2.63;;;9.80;97.50;;;;;;4845773;29;20121;-82
2021/12/01 03:10:51;;;;;;;4.28;2.13;;;9.80;97.40;;;;;;4828173;29;20129;-82
2021/12/01 03:13:19;;;;;;;3.42;2.10;;;9.80;97.50;;;;;;4854040;29;20042;-82
2021/12/01 03:15:47;;;;;;;4.35;2.33;;;9.80;97.50;;;;;;4831460;29;20110;-82
2021/12/01 03:18:16;;;;;;;3.70;2.28;;;9.80;97.50;;;;;;4832655;29;20050;-81
2021/12/01 03:20:46;;;;;;;3.10;1.75;;;9.80;97.50;;;;;;4834542;29;20064;-82
2021/12/01 03:23:14;;;;;;;3.92;1.98;;;9.70;97.50;;;;;;4825644;29;20042;-82
2021/12/01 03:25:43;;;;;;;3.80;2.03;;;9.70;97.50;;;;;;4862785;29;20050;-82
2021/12/01 03:28:10;;;;;;;3.20;1.92;;;9.70;97.50;;;;;;4841178;29;20030;-82
2021/12/01 03:30:38;;;;;;;2.72;1.67;;;9.70;97.50;;;;;;4851482;29;20045;-81
2021/12/01 03:33:11;;;;;;;4.68;2.13;;;9.70;97.50;;;;;;4863770;29;20079;-82
2021/12/01 03:35:41;;;;;;;3.45;1.80;;;9.70;97.50;;;;;;4849614;29;20483;-81
2021/12/01 03:38:08;;;;;;;4.97;1.92;;;9.60;97.50;;;;;;4836404;29;20065;-82
2021/12/01 03:40:35;;;;;;;4.43;2.53;;;9.60;97.50;;;;;;4829519;29;20061;-82
2021/12/01 03:43:03;;;;;;;4.60;2.38;;;9.60;97.40;;;;;;4831774;29;20050;-82
2021/12/01 03:45:32;;;;;;;4.53;2.45;;;9.60;97.50;;;;;;4821471;29;20101;-82
2021/12/01 03:47:59;;;;;;;3.63;2.03;;;9.50;97.50;;;;;;4838275;29;20053;-82
2021/12/01 03:50:26;;;;;;;3.53;1.80;;;9.50;97.50;;;;;;4831277;29;20041;-81
2021/12/01 03:52:53;;;;;;;3.58;1.90;;;9.50;97.50;;;;;;4867613;29;20109;-81
2021/12/01 03:55:21;;;;;;;3.47;2.03;;;9.50;97.50;;;;;;4814962;29;20137;-82
2021/12/01 03:57:48;;;;;;;2.67;1.27;;;9.50;97.50;;;;;;4845396;29;20113;-83
2021/12/01 04:00:17;;;;;;;3.30;2.00;;;9.50;97.50;;;;;;4828680;29;20688;-82
2021/12/01 04:02:46;;;;;;;4.07;2.00;;;9.50;97.50;;;;;;4830906;29;20057;-82
2021/12/01 04:05:13;;;;;;;3.30;1.90;;;9.50;97.50;;;;;;4842072;29;20109;-82
2021/12/01 04:07:40;;;;;;;3.17;1.88;;;9.50;97.40;;;;;;4827371;29;20069;-83
2021/12/01 04:10:11;;;;;;;3.33;2.05;;;9.40;97.40;;;;;;4842749;29;20379;-82
2021/12/01 04:12:38;;;;;;;5.00;2.47;;;9.40;97.40;;;;;;4835525;29;20158;-82
2021/12/01 04:15:05;;;;;;;4.35;2.40;;;9.40;97.40;;;;;;4828178;29;20049;-84
2021/12/01 04:17:32;;;;;;;3.85;2.25;;;9.40;97.40;;;;;;4828799;29;20050;-83
2021/12/01 04:19:59;;;;;;;4.00;2.20;;;9.30;97.40;;;;;;4851034;29;20101;-84
2021/12/01 04:22:26;;;;;;;3.83;2.15;;;9.40;97.40;;;;;;4815221;29;20061;-84
2021/12/01 04:24:54;;;;;;;3.55;2.20;;;9.30;97.40;;;;;;4828762;29;20057;-83
2021/12/01 04:27:21;;;;;;;3.53;2.10;;;9.30;97.40;;;;;;4813646;29;20590;-83
2021/12/01 04:29:51;;;;;;;3.70;2.33;;;9.30;97.40;;;;;;4819765;29;20133;-83
2021/12/01 04:32:21;;;;;;;3.60;2.35;;;9.30;97.40;;;;;;4815493;29;20460;-83
2021/12/01 04:34:47;;;;;;;5.88;2.90;;;9.30;97.40;;;;;;4827471;29;20061;-79
2021/12/01 04:37:14;;;;;;;5.35;2.80;;;9.30;97.40;;;;;;4817087;29;20056;-79
2021/12/01 04:39:42;;;;;;;5.60;2.25;;;9.20;97.40;;;;;;4829960;29;20065;-79
2021/12/01 04:42:11;;;;;;;4.28;2.55;;;9.20;97.30;;;;;;4828696;29;20076;-79
2021/12/01 04:44:40;;;;;;;4.25;2.65;;;9.20;97.40;;;;;;4814535;29;20136;-78
2021/12/01 04:47:13;;;;;;;4.05;2.10;;;9.20;97.40;;;;;;4830280;29;20633;-78
2021/12/01 04:49:41;;;;;;;5.07;2.78;;;9.20;97.40;;;;;;4827568;29;20070;-79
2021/12/01 04:52:13;;;;;;;6.00;2.70;;;9.20;97.40;;;;;;4829276;29;20111;-79
2021/12/01 04:54:40;;;;;;;4.03;2.65;;;9.20;97.40;;;;;;4836706;29;20064;-79
2021/12/01 04:57:07;;;;;;;5.07;2.88;;;9.20;97.30;;;;;;4815850;29;20050;-79
2021/12/01 04:59:35;;;;;;;5.22;3.40;;;9.20;97.30;;;;;;4829702;29;20090;-80
2021/12/01 05:02:02;;;;;;;4.55;2.65;;;9.20;97.30;;;;;;4846973;29;20435;-80
2021/12/01 05:04:30;;;;;;;4.53;2.38;;;9.20;97.30;;;;;;4828388;29;20582;-79
2021/12/01 05:06:57;;;;;;;5.03;3.33;;;9.20;97.30;;;;;;4828332;29;20080;-79
2021/12/01 05:09:24;;;;;;;5.72;3.38;;;9.20;97.30;;;;;;4827641;29;21086;-79
2021/12/01 05:11:51;;;;;;;5.30;3.17;;;9.20;97.20;;;;;;4812345;29;20046;-79
2021/12/01 05:14:20;;;;;;;5.55;3.60;;;9.20;97.20;;;;;;4811684;29;20573;-79
2021/12/01 05:16:47;;;;;;;5.95;3.53;;;9.10;97.10;;;;;;4827882;29;20371;-79
2021/12/01 05:19:14;;;;;;;6.35;3.05;;;9.10;97.20;;;;;;4827607;29;20058;-79
2021/12/01 05:21:41;;;;;;;4.10;2.30;;;9.10;97.20;;;;;;4827784;29;20125;-79
2021/12/01 05:24:09;;;;;;;5.65;3.30;;;9.10;97.20;;;;;;4827856;29;20464;-79
2021/12/01 05:26:36;;;;;;;5.75;3.55;;;9.10;97.20;;;;;;4825675;29;20054;-79
2021/12/01 05:29:03;;;;;;;5.32;3.28;;;9.10;97.10;;;;;;4831366;29;20057;-80
2021/12/01 05:31:31;;;;;;;5.55;3.20;;;9.10;97.10;;;;;;4833537;29;20106;-79
2021/12/01 05:33:58;;;;;;;5.25;2.78;;;9.00;97.10;;;;;;4827942;29;20049;-79
2021/12/01 05:36:25;;;;;;;5.18;3.00;;;9.00;97.10;;;;;;4825652;29;20045;-79
2021/12/01 05:38:52;;;;;;;5.78;2.72;;;9.00;97.20;;;;;;4830025;29;20061;-81
2021/12/01 05:41:19;;;;;;;4.97;2.80;;;9.00;97.20;;;;;;4826687;29;20061;-83
2021/12/01 05:43:47;;;;;;;4.18;2.30;;;9.00;97.10;;;;;;4810436;29;20160;-82
2021/12/01 05:46:14;;;;;;;4.63;2.67;;;9.00;97.20;;;;;;4856112;29;20058;-82
2021/12/01 05:48:42;;;;;;;4.68;2.75;;;9.00;97.20;;;;;;4810975;29;20046;-79
2021/12/01 05:51:09;;;;;;;4.32;2.20;;;9.00;97.40;;;;;;4825164;29;20784;-79
2021/12/01 05:53:36;;;;;;;3.45;1.98;;;8.90;97.30;;;;;;4827083;29;20107;-79
2021/12/01 05:56:04;;;;;;;3.42;2.05;;;8.90;97.10;;;;;;4811209;29;20050;-79
2021/12/01 05:58:31;;;;;;;3.63;2.25;;;8.90;97.20;;;;;;4841598;29;20124;-79
2021/12/01 06:00:58;;;;;;;3.08;1.70;;;8.90;97.20;;;;;;4843940;29;20054;-79
2021/12/01 06:03:25;;;;;;;3.80;2.20;;;8.90;97.20;;;;;;4826747;29;20058;-79
2021/12/01 06:05:52;;;;;;;4.40;2.22;;;8.90;97.10;;;;;;4812301;29;20065;-79
2021/12/01 06:08:20;;;;;;;3.20;1.80;;;8.90;97.10;;;;;;4843088;29;20132;-79
2021/12/01 06:10:47;;;;;;;3.42;2.20;;;8.90;97.20;;;;;;4830547;29;20065;-79
2021/12/01 06:13:17;;;;;;;3.28;2.03;;;8.90;97.10;;;;;;4836428;29;20037;-80
2021/12/01 06:15:49;;;;;;;2.90;1.88;;;8.80;97.10;;;;;;4840472;29;20607;-79
2021/12/01 06:18:17;;;;;;;3.45;1.70;;;8.80;97.10;;;;;;4844236;29;20060;-79
2021/12/01 06:20:45;;;;;;;3.28;1.70;;;8.80;97.10;;;;;;4827904;29;20141;-79
2021/12/01 06:23:13;;;;;;;2.95;1.70;;;8.80;97.10;;;;;;4859038;29;20042;-78
2021/12/01 06:25:40;;;;;;;2.80;1.25;;;8.80;97.10;;;;;;4820051;29;20978;-79
2021/12/01 06:28:08;;;;;;;2.78;1.35;;;8.80;97.10;;;;;;4828531;29;20051;-79
2021/12/01 06:30:37;;;;;;;2.58;1.23;;;8.80;97.20;;;;;;4860844;29;20054;-79
2021/12/01 06:33:04;;;;;;;2.22;1.35;;;8.80;97.20;;;;;;4839263;29;20072;-79
2021/12/01 06:35:31;;;;;;;3.10;1.10;;;8.80;97.20;;;;;;4850234;29;20201;-79
2021/12/01 06:37:58;;;;;;;2.45;1.23;;;8.80;97.10;;;;;;4845101;29;20439;-79
2021/12/01 06:40:26;;;;;;;2.15;1.20;;;8.80;97.10;;;;;;4830170;29;20050;-78
2021/12/01 06:42:54;;;;;;;2.28;1.08;;;8.80;97.20;;;;;;4845610;29;20099;-79
2021/12/01 06:45:22;;;;;;;2.30;1.42;;;8.80;97.20;;;;;;4839666;29;20117;-78
2021/12/01 06:47:50;;;;;;;2.55;1.02;;;8.80;97.20;;;;;;4829277;29;20089;-79
2021/12/01 06:50:17;;;;;;;1.92;0.80;;;8.70;97.20;;;;;;4812948;29;20529;-79
2021/12/01 06:52:47;;;;;;;2.58;0.90;;;8.70;97.20;;;;;;4844029;29;20049;-80
2021/12/01 06:55:15;;;;;;;1.17;0.77;;;8.70;97.20;;;;;;4846343;29;20046;-79
2021/12/01 06:57:42;;;;;;;1.45;0.80;;;8.80;97.20;;;;;;4822623;29;20050;-79
2021/12/01 07:00:11;;;;;;;2.67;0.90;;;8.80;97.20;;;;;;4814405;29;20081;-79
2021/12/01 07:02:39;;;;;;;2.08;0.98;;;8.80;97.20;;;;;;4832521;29;20049;-79
2021/12/01 07:05:08;;;;;;;1.88;1.15;;;8.80;97.20;;;;;;4829030;29;20136;-78
2021/12/01 07:07:36;;;;;;;1.60;0.80;;;8.80;97.30;;;;;;4846799;29;20057;-78
2021/12/01 07:10:07;;;;;;;1.73;0.90;;;8.80;97.50;;;;;;4831342;29;21216;-79
2021/12/01 07:12:34;;;;;;;1.30;0.75;;;8.80;97.20;;;;;;4860226;29;20090;-82
2021/12/01 07:15:01;;;;;;;1.52;0.85;;;8.80;97.20;;;;;;4814361;29;20133;-81
2021/12/01 07:17:28;;;;;;;2.00;0.90;;;8.80;97.30;;;;;;4850150;29;20041;-81
2021/12/01 07:19:55;;;;;;;1.95;1.00;;;8.80;97.30;;;;;;4842954;29;20049;-82
2021/12/01 07:22:23;;;;;;;2.50;0.80;;;8.80;97.20;;;;;;4829890;29;20050;-77
2021/12/01 07:24:50;;;;;;;1.75;0.82;;;8.80;97.30;;;;;;4838430;29;20197;-78
2021/12/01 07:27:17;;;;;;;2.17;1.00;;;8.80;97.30;;;;;;4815859;29;20140;-78
2021/12/01 07:29:45;;;;;;;2.65;1.10;;;8.90;97.30;;;;;;4829283;29;20150;-78
2021/12/01 07:32:13;;;;;;;2.25;1.10;;;8.90;97.30;;;;;;4830175;29;20050;-79
2021/12/01 07:34:43;;;;;;;2.25;1.10;;;8.90;97.30;;;;;;4828620;29;20102;-77
2021/12/01 07:37:16;;;;;;;2.05;1.10;;;8.90;97.30;;;;;;4844421;29;20049;-78
2021/12/01 07:39:44;;;;;;;2.45;1.33;;;8.90;97.30;;;;;;4836212;29;20061;-78
2021/12/01 07:42:12;;;;;;;3.00;1.40;;;8.90;97.30;;;;;;4819892;29;20073;-78
2021/12/01 07:44:39;;;;;;;2.45;1.27;;;8.90;97.30;;;;;;4827878;29;20061;-78
2021/12/01 07:47:08;;;;;;;2.17;1.08;;;8.90;97.60;;;;;;4838597;29;20053;-78
2021/12/01 07:49:35;;;;;;;3.08;1.98;;;8.90;97.30;;;;;;4824736;29;20114;-77
2021/12/01 07:52:06;;;;;;;3.40;1.20;;;8.90;97.30;;;;;;4847402;29;20054;-78
2021/12/01 07:54:34;;;;;;;2.65;1.48;;;8.90;97.30;;;;;;4845273;29;20042;-78
2021/12/01 07:57:01;;;;;;;3.50;2.22;;;8.90;97.30;;;;;;4842324;29;20106;-78
2021/12/01 07:59:29;;;;;;;2.45;1.45;;;9.00;97.30;;;;;;4828835;29;20053;-78
2021/12/01 08:01:56;;;;;;;3.58;1.80;;;9.00;97.30;;;;;;4829015;29;20068;-77
2021/12/01 08:04:24;;;;;;;3.40;1.88;;;9.00;97.30;;;;;;4851529;29;20046;-78
2021/12/01 08:06:52;;;;;;;3.03;1.55;;;9.00;97.30;;;;;;4813182;29;20057;-77
2021/12/01 08:09:19;;;;;;;4.43;2.20;;;9.00;97.40;;;;;;4868193;29;20070;-78
2021/12/01 08:11:47;;;;;;;4.10;2.20;;;9.00;97.30;;;;;;4836990;29;20085;-76
2021/12/01 08:14:15;;;;;;;5.28;2.55;;;9.10;97.40;;;;;;4827500;29;20120;-77
2021/12/01 08:16:42;;;;;;;5.55;2.70;;;9.00;97.30;;;;;;4810991;29;20117;-77
2021/12/01 08:19:09;;;;;;;5.30;3.08;;;9.10;97.40;;;;;;4845627;29;20069;-76
2021/12/01 08:21:36;;;;;;;5.15;3.53;;;9.10;97.30;;;;;;4845996;29;20315;-77
2021/12/01 08:24:10;;;;;;;6.97;3.80;;;9.10;97.30;;;;;;4822097;29;20054;-78
2021/12/01 08:26:38;;;;;;;5.53;3.47;;;9.20;97.40;;;;;;4814320;29;20086;-77
2021/12/01 08:29:05;;;;;;;6.40;3.50;;;9.20;97.40;;;;;;4825957;29;20080;-78
2021/12/01 08:31:33;;;;;;;6.15;3.60;;;9.20;97.30;;;;;;4814993;29;20078;-78
2021/12/01 08:34:00;;;;;;;6.15;3.72;;;9.20;97.30;;;;;;4828844;29;20042;-77
2021/12/01 08:36:27;;;;;;;9.13;5.15;;;9.30;97.40;;;;;;4819745;29;21220;-78
2021/12/01 08:38:54;;;;;;;5.53;3.53;;;9.30;97.30;;;;;;4844397;29;20381;-77
2021/12/01 08:41:22;;;;;;;7.88;4.95;;;9.30;97.30;;;;;;4837321;29;20480;-78
2021/12/01 08:43:49;;;;;;;7.75;4.13;;;9.30;97.30;;;;;;4828643;29;20062;-78
2021/12/01 08:46:16;;;;;;;6.50;3.63;;;9.30;97.30;;;;;;4843115;29;20250;-77
2021/12/01 08:48:47;;;;;;;7.40;5.00;;;9.40;97.30;;;;;;4845356;29;20056;-78
2021/12/01 08:51:16;;;;;;;6.85;4.20;;;9.40;97.30;;;;;;4816401;29;20057;-78
2021/12/01 08:53:44;;;;;;;6.85;4.70;;;9.40;97.30;;;;;;4829582;29;20046;-78
2021/12/01 08:56:11;;;;;;;7.32;4.53;;;9.40;97.30;;;;;;4815689;29;20117;-77
2021/12/01 08:58:38;;;;;;;8.75;5.40;;;9.40;97.20;;;;;;4843309;29;20098;-78
2021/12/01 09:01:05;;;;;;;9.68;5.13;;;9.50;97.20;;;;;;4831532;29;20386;-78
2021/12/01 09:03:33;;;;;;;9.13;5.85;;;9.50;97.50;;;;;;4828031;29;20049;-78
2021/12/01 09:06:00;;;;;;;8.85;6.10;;;9.50;97.20;;;;;;4831967;29;20053;-78
2021/12/01 09:08:27;;;;;;;9.65;6.25;;;9.50;97.20;;;;;;4828199;29;20869;-80
2021/12/01 09:11:02;;;;;;;10.57;6.72;;;9.50;97.20;;;;;;4813681;29;20137;-82
2021/12/01 09:13:32;;;;;;;11.15;6.60;;;9.40;97.10;;;;;;4838864;29;20056;-82
2021/12/01 09:16:00;;;;;;;10.85;6.97;;;9.40;97.20;;;;;;4827464;29;20054;-84
2021/12/01 09:18:29;;;;;;;10.55;6.38;;;9.40;97.20;;;;;;4821099;29;20041;-84
2021/12/01 09:20:58;;;;;;;11.10;6.47;;;9.40;97.20;;;;;;4812686;29;20085;-83
2021/12/01 09:23:26;;;;;;;8.00;5.57;;;9.40;97.20;;;;;;4843931;29;20077;-84
2021/12/01 09:25:53;;;;;;;6.53;4.90;;;9.30;97.20;;;;;;4829949;29;20038;-84
2021/12/01 09:28:25;;;;;;;7.20;3.88;;;9.30;97.10;;;;;;4844792;29;20061;-84
2021/12/01 09:30:55;;;;;;;5.82;4.30;;;9.20;97.10;;;;;;4861952;29;20076;-82
2021/12/01 09:33:22;;;;;;;6.22;3.05;;;9.20;97.10;;;;;;4844532;29;20126;-83
2021/12/01 09:35:51;;;;;;;7.25;3.17;;;9.20;97.30;;;;;;4828925;29;20058;-82
2021/12/01 09:38:19;;;;;;;6.15;2.42;;;9.10;97.10;;;;;;4813124;29;20069;-81
2021/12/01 09:40:51;;;;;;;4.35;2.03;;;9.10;97.10;;;;;;4828766;29;20052;-83
2021/12/01 09:43:22;;;;;;;5.68;2.25;;;9.10;97.10;;;;;;4844431;29;20072;-82
2021/12/01 09:45:49;;;;;;;6.50;2.22;;;9.10;97.10;;;;;;4827804;29;20062;-82
2021/12/01 09:48:17;;;;;;;7.63;1.95;;;9.00;97.10;;;;;;4827567;29;20695;-83
2021/12/01 09:51:03;;;;;;;6.07;1.75;;;9.00;97.10;;;;;;4845142;29;20076;-83
2021/12/01 09:53:30;;;;;;;10.43;2.15;;;9.00;97.00;;;;;;4813774;29;20498;-82
2021/12/01 09:55:58;;;;;;;6.90;1.80;;;9.00;97.10;;;;;;4820904;29;20161;-80
2021/12/01 09:58:31;;;;;;;6.07;2.05;;;9.00;97.10;;;;;;4830461;29;20121;-82
2021/12/01 10:01:01;;;;;;;7.72;2.38;;;9.00;97.10;;;;;;4827546;29;20134;-81
2021/12/01 10:03:28;;;;;;;6.93;1.60;;;9.00;97.10;;;;;;4834111;29;20065;-80
2021/12/01 10:06:40;;;;;;;4.75;1.35;;;9.00;97.10;;;;;;4810260;29;20796;-80
2021/12/01 10:08:52;;;;;;;7.60;1.60;;;9.10;97.10;;;;;;4845210;29;20049;-80
2021/12/01 10:11:24;;;;;;;7.50;1.95;;;9.10;97.10;;;;;;4858275;29;20046;-80
2021/12/01 10:14:03;;;;;;;4.60;1.42;;;9.10;97.10;;;;;;4835325;29;20057;-80
2021/12/01 10:16:40;;;;;;;7.28;1.48;;;9.10;97.10;;;;;;4843366;29;20044;-80
2021/12/01 10:19:09;;;;;;;6.95;1.50;;;9.10;97.10;;;;;;4840019;29;20065;-77
2021/12/01 10:21:42;;;;;;;3.97;1.58;;;9.20;97.10;;;;;;4842006;29;20519;-77
2021/12/01 10:24:12;;;;;;;4.05;1.20;;;9.30;97.10;;;;;;4863760;29;20058;-77
2021/12/01 10:26:48;;;;;;;8.05;1.20;;;9.30;96.90;;;;;;4840783;29;20506;-77
2021/12/01 10:29:22;;;;;;;2.83;0.90;;;9.30;96.90;;;;;;4833321;29;20165;-77
2021/12/01 10:31:52;;;;;;;8.20;1.00;;;9.30;96.80;;;;;;4845065;29;20203;-77
2021/12/01 10:34:31;;;;;;;3.40;0.80;;;9.20;96.70;;;;;;4856079;29;20670;-77
2021/12/01 10:40:23;;;;;;;3.88;0.80;;;9.30;96.80;;;;;;4845436;29;20065;-76
2021/12/01 10:43:09;;;;;;;4.43;1.10;;;9.30;96.70;;;;;;4841825;29;20782;-77
2021/12/01 10:45:42;;;;;;;6.57;0.73;;;9.40;96.70;;;;;;4842037;29;20054;-77
2021/12/01 10:48:19;;;;;;;3.30;0.60;;;9.50;96.70;;;;;;4836815;29;20049;-77
2021/12/01 10:50:46;;;;;;;7.10;1.52;;;9.50;96.40;;;;;;4847596;29;20042;-77
2021/12/01 10:53:17;;;;;;;6.85;0.75;;;9.40;96.10;;;;;;4825198;29;20052;-77
2021/12/01 10:55:51;;;;;;;4.63;0.90;;;9.30;96.10;;;;;;4833735;29;20046;-77
2021/12/01 10:58:29;;;;;;;2.50;0.50;;;9.20;96.20;;;;;;4839598;29;20053;-77
2021/12/01 11:00:56;;;;;;;2.47;1.10;;;9.20;96.20;;;;;;4857740;29;20057;-77
2021/12/01 11:03:26;;;;;;;4.30;1.23;;;9.10;96.20;;;;;;4811873;29;20172;-77
2021/12/01 11:06:12;;;;;;;4.13;1.65;;;9.10;96.20;;;;;;4843348;29;20116;-79
2021/12/01 11:08:45;;;;;;;3.45;1.02;;;9.10;96.20;;;;;;4841372;29;20053;-80
2021/12/01 11:11:15;;;;;;;4.70;0.85;;;9.10;96.30;;;;;;4837944;29;20049;-79
2021/12/01 11:14:16;;;;;;;3.60;0.65;;;9.20;96.30;;;;;;4842126;29;20411;-79
2021/12/01 11:16:45;;;;;;;1.20;0.47;;;9.20;96.20;;;;;;4845162;29;20599;-79
2021/12/01 11:19:12;;;;;;;5.05;1.10;;;9.20;96.20;;;;;;4844105;29;20046;-79
2021/12/01 11:21:40;;;;;;;2.10;0.50;;;9.20;96.20;;;;;;4842509;29;20110;-80
2021/12/01 11:24:09;;;;;;;3.25;0.57;;;9.20;96.20;;;;;;4844346;29;20090;-80
2021/12/01 11:26:38;;;;;;;5.70;0.60;;;9.20;96.10;;;;;;4851668;29;20146;-80
2021/12/01 11:29:18;;;;;;;5.60;0.82;;;9.20;96.10;;;;;;4846399;29;20117;-80
2021/12/01 11:31:46;;;;;;;2.25;0.73;;;9.20;96.00;;;;;;4847327;29;20183;-79
2021/12/01 11:34:17;;;;;;;3.60;0.63;;;9.20;95.80;;;;;;4847367;29;20098;-79
2021/12/01 11:36:49;;;;;;;3.35;0.80;;;9.30;95.80;;;;;;4832775;29;20132;-80
2021/12/01 11:39:20;;;;;;;2.28;0.57;;;9.30;95.70;;;;;;4862319;29;20045;-81
2021/12/01 11:41:49;;;;;;;1.98;0.40;;;9.30;95.70;;;;;;4836030;29;20418;-80
2021/12/01 11:44:18;;;;;;;5.07;0.70;;;9.30;95.70;;;;;;4847232;29;20064;-80
2021/12/01 11:46:48;;;;;;;4.65;1.38;;;9.30;95.70;;;;;;4831216;29;20050;-81
2021/12/01 11:49:18;;;;;;;6.25;2.17;;;9.30;95.60;;;;;;4859053;29;20053;-80
2021/12/01 11:52:04;;;;;;;6.50;1.15;;;9.30;95.60;;;;;;4844202;29;20368;-81
2021/12/01 11:54:33;;;;;;;6.97;1.15;;;9.30;95.40;;;;;;4844200;29;20052;-81
2021/12/01 11:57:06;;;;;;;9.15;1.15;;;9.20;95.50;;;;;;4832941;29;20098;-88
2021/12/01 11:59:38;;;;;;;4.50;1.02;;;9.30;95.50;;;;;;4846048;29;20090;-81
2021/12/01 12:02:26;;;;;;;2.03;0.70;;;9.30;95.50;;;;;;4828419;29;20121;-78
2021/12/01 12:04:57;;;;;;;4.65;1.00;;;9.20;95.30;;;;;;4845488;29;20309;-80
2021/12/01 12:07:27;;;;;;;8.50;1.10;;;9.20;95.40;;;;;;4830986;29;20877;-81
2021/12/01 12:10:23;;;;;;;4.40;1.30;;;9.20;95.40;;;;;;4852385;29;20060;-81
2021/12/01 12:13:00;;;;;;;5.75;0.80;;;9.20;95.30;;;;;;4842698;29;20094;-82
2021/12/01 12:15:52;;;;;;;5.00;0.85;;;9.20;95.30;;;;;;4835618;29;20053;-81
2021/12/01 12:18:33;;;;;;;3.70;0.90;;;9.20;95.30;;;;;;4831954;29;20048;-80
2021/12/01 12:24:15;;;;;;;10.70;0.98;;;9.30;95.10;;;;;;4847284;29;20061;-80
2021/12/01 12:26:45;;;;;;;6.18;0.90;;;9.30;95.10;;;;;;4851671;29;20459;-81
2021/12/01 12:29:18;;;;;;;3.90;0.75;;;9.30;95.10;;;;;;4843585;29;20498;-82
2021/12/01 12:31:47;;;;;;;5.13;0.90;;;9.40;95.00;;;;;;4843579;29;20144;-78
2021/12/01 12:34:16;;;;;;;5.50;1.08;;;9.30;94.90;;;;;;4845740;29;20041;-78
2021/12/01 12:36:47;;;;;;;4.68;0.77;;;9.30;94.80;;;;;;4828407;29;20125;-81
2021/12/01 12:39:24;;;;;;;6.87;1.07;;;9.30;94.80;;;;;;4857817;29;20160;-81
2021/12/01 12:42:01;;;;;;;9.57;0.90;;;9.40;94.80;;;;;;4842120;29;20057;-80
2021/12/01 12:44:39;;;;;;;4.47;0.50;;;9.30;94.80;;;;;;4842619;29;20069;-79
2021/12/01 12:47:39;;;;;;;3.28;0.50;;;9.40;94.80;;;;;;4843677;29;20050;-79
2021/12/01 12:50:21;;;;;;;5.77;0.83;;;9.40;94.70;;;;;;4849182;29;20121;-79
2021/12/01 12:53:04;;;;;;;2.47;0.70;;;9.40;94.60;;;;;;4848639;29;20049;-78
2021/12/01 12:55:31;;;;;;;4.38;0.80;;;9.40;94.60;;;;;;4850921;29;20299;-80
2021/12/01 12:58:04;;;;;;;5.53;1.25;;;9.40;94.30;;;;;;4865320;29;20107;-80
2021/12/01 13:00:32;;;;;;;;;;;9.40;94.30;;;;;;4826812;29;20061;-80
2021/12/01 13:03:24;;;;;;;4.07;0.80;;;9.40;94.40;;;;;;4839244;29;21455;-80
2021/12/01 13:06:01;;;;;;;7.75;0.80;;;9.50;94.30;;;;;;4864236;29;20068;-80
2021/12/01 13:08:28;;;;;;;6.60;0.73;;;9.50;94.30;;;;;;4844998;29;20045;-80
2021/12/01 13:11:03;;;;;;;3.55;0.70;;;9.50;94.20;;;;;;4865848;29;20295;-79
2021/12/01 13:13:35;;;;;;;8.93;1.98;;;9.50;94.10;;;;;;4838693;29;20876;-79
2021/12/01 13:16:05;;;;;;;8.32;1.00;;;9.50;94.10;;;;;;4850747;29;20056;-79
2021/12/01 13:18:35;;;;;;;8.85;1.15;;;9.50;93.70;;;;;;4845366;29;20144;-79
2021/12/01 13:21:07;;;;;;;2.70;0.63;;;9.50;93.70;;;;;;4845606;29;20049;-81